Date,TemperatureHighF,TemperatureAvgF,TemperatureLowF,DewpointHighF,DewpointAvgF,DewpointLowF,HumidityHigh,HumidityAvg,HumidityLow,PressureMaxIn,PressureMinIn,WindSpeedMaxMPH,WindSpeedAvgMPH,GustSpeedMaxMPH,PrecipitationSumIn
2013-1-1,56,47,40,39,34,28,82,63,42,30.27,30.21,5,1,14,0.00
2013-1-2,59,49,42,35,31,27,63,51,36,30.25,30.14,5,1,8,0.00
2013-1-3,61,47,38,43,36,29,82,66,50,30.27,30.17,5,0,7,0.00
2013-1-4,61,50,41,39,35,32,78,58,39,30.29,30.18,5,0,10,0.00
2013-1-5,53,47,41,47,43,37,94,86,76,30.27,30.07,5,1,10,0.39
2013-1-6,51,46,42,46,43,41,95,90,77,30.20,30.07,9,0,9,0.01
2013-1-7,60,48,41,48,44,40,96,86,63,30.27,30.16,5,0,6,0.00
2013-1-8,66,52,44,49,45,42,94,78,54,30.25,30.13,2,0,5,0.00
2013-1-9,52,47,42,49,42,36,94,83,69,30.15,30.00,5,1,10,0.00
2013-1-10,53,44,37,38,35,33,90,71,47,30.20,30.09,3,1,10,0.00
2013-1-11,55,44,39,41,36,32,90,73,57,30.26,30.13,3,0,6,0.00
2013-1-12,54,44,35,37,30,24,89,60,34,30.26,30.15,4,1,6,0.00
2013-1-13,54,43,34,33,24,16,72,49,29,30.27,30.18,3,0,7,0.00
2013-1-14,55,44,36,27,21,16,61,41,28,30.41,30.23,4,0,10,0.00
2013-1-15,56,45,36,31,27,23,70,51,33,30.48,30.40,5,1,8,0.00
2013-1-16,61,48,37,39,32,25,78,55,33,30.44,30.25,3,0,9,0.00
2013-1-17,66,55,46,40,30,23,62,40,26,30.26,30.14,5,1,10,0.00
2013-1-18,67,56,48,37,31,22,65,40,26,30.22,30.12,5,1,13,0.00
2013-1-19,65,54,40,37,29,22,77,40,25,30.24,30.15,5,1,10,0.00
2013-1-20,67,55,43,38,30,24,80,42,26,30.21,30.12,7,1,11,0.00
2013-1-21,69,55,44,40,34,26,63,46,32,30.17,30.07,7,1,9,0.00
2013-1-22,69,55,47,45,40,36,74,58,40,30.10,29.99,4,0,14,0.00
2013-1-23,54,52,49,52,47,41,96,83,68,30.08,29.95,4,0,8,0.29
2013-1-24,61,54,50,53,50,48,94,87,74,30.19,30.06,5,1,9,0.00
2013-1-25,69,58,52,56,52,50,94,82,62,30.19,30.04,3,1,7,0.00
2013-1-26,61,52,45,50,44,39,95,76,46,30.08,29.99,4,0,7,0.00
2013-1-27,60,48,41,40,38,33,84,70,38,30.18,30.07,4,0,7,0.00
2013-1-28,61,49,41,44,40,36,87,72,46,30.29,30.17,4,1,10,0.00
2013-1-29,62,50,42,44,41,38,88,72,47,30.36,30.27,4,0,6,0.00
2013-1-30,65,53,45,48,44,41,91,72,46,30.34,30.26,4,1,6,0.00
2013-1-31,71,56,46,48,44,41,84,67,44,30.29,30.16,5,0,6,0.00
2013-2-1,70,57,49,48,45,42,91,65,43,30.22,30.11,5,1,10,0.00
2013-2-2,59,50,45,50,46,43,95,87,70,30.30,30.21,6,1,10,0.00
2013-2-3,58,50,42,47,44,40,93,80,59,30.26,30.14,5,1,8,0.00
2013-2-4,61,49,46,51,47,45,95,90,70,30.18,30.07,5,2,10,0.00
2013-2-5,60,50,45,48,44,41,90,81,66,30.16,30.07,5,1,8,0.00
2013-2-6,59,49,41,45,42,39,92,76,57,30.20,30.13,5,1,8,0.00
2013-2-7,58,49,44,47,42,39,93,80,52,30.17,29.99,9,2,14,0.20
2013-2-8,57,47,40,43,40,36,94,79,54,30.02,29.94,5,0,9,0.02
2013-2-9,63,49,41,38,34,27,80,59,27,30.09,30.00,5,1,7,0.00
2013-2-10,62,49,40,43,38,32,85,65,43,30.12,30.02,5,1,5,0.00
2013-2-11,68,53,43,47,37,28,92,59,26,30.23,30.07,5,1,8,0.00
2013-2-12,66,52,44,46,43,38,95,76,38,30.36,30.24,7,1,8,0.00
2013-2-13,60,49,44,48,45,41,95,87,64,30.35,30.22,7,2,11,0.00
2013-2-14,73,55,44,51,46,42,96,74,38,30.25,30.15,5,1,8,0.00
2013-2-15,74,63,49,44,39,35,77,42,32,30.27,30.20,6,1,9,0.00
2013-2-16,75,59,49,50,46,39,89,63,36,30.22,30.05,3,1,8,0.00
2013-2-17,61,52,46,48,46,43,92,80,56,30.06,29.97,6,2,9,0.00
2013-2-18,54,48,46,45,41,37,91,77,61,30.04,29.96,8,2,12,0.00
2013-2-19,49,44,40,44,39,35,93,82,67,29.97,29.75,6,1,13,0.39
2013-2-20,62,47,38,41,37,33,87,71,43,30.06,29.86,4,1,6,0.00
2013-2-21,64,49,40,41,37,31,86,65,32,30.17,30.05,3,0,9,0.00
2013-2-22,59,50,41,46,42,37,89,75,50,30.26,30.18,9,1,13,0.00
2013-2-23,61,51,43,47,39,34,91,66,36,30.26,30.16,6,1,9,0.00
2013-2-24,65,52,42,44,35,26,85,56,24,30.25,30.17,4,2,7,0.00
2013-2-25,62,52,45,47,44,40,91,76,52,30.27,30.17,5,2,8,0.00
2013-2-26,71,53,44,44,36,24,79,57,18,30.22,30.14,5,1,7,0.00
2013-2-27,66,53,43,47,43,38,89,72,49,30.37,30.21,6,1,8,0.00
2013-2-28,66,54,48,52,49,44,93,82,60,30.45,30.37,7,2,10,0.00
2013-3-1,75,59,48,55,50,46,96,74,40,30.43,30.23,4,0,11,0.00
2013-3-2,71,58,51,55,51,48,94,78,57,30.24,30.07,6,1,12,0.00
2013-3-3,61,52,48,53,49,46,96,89,71,30.10,30.05,14,6,17,0.00
2013-3-4,56,49,43,47,45,41,94,87,70,30.16,30.06,8,3,15,0.00
2013-3-5,57,50,42,47,43,40,94,79,61,30.08,29.83,21,6,31,0.13
2013-3-6,55,50,45,48,45,43,96,81,63,30.07,29.84,20,6,38,0.09
2013-3-7,60,50,44,46,43,37,94,78,48,30.00,29.86,4,0,7,0.01
2013-3-8,65,51,44,45,42,39,90,73,45,30.05,29.84,4,0,8,0.00
2013-3-9,65,52,41,49,43,38,92,73,48,30.31,30.05,7,1,9,0.00
2013-3-10,64,54,45,50,46,41,93,76,48,30.35,30.25,7,2,9,0.00
2013-3-11,71,54,44,51,47,41,95,80,49,30.26,30.11,6,2,13,0.00
2013-3-12,68,54,48,55,50,46,96,84,60,30.16,30.07,8,2,8,0.00
2013-3-13,81,59,45,56,51,44,97,77,39,30.17,30.06,6,1,7,0.00
2013-3-14,59,53,48,52,49,45,97,87,76,30.18,30.09,8,2,10,0.00
2013-3-15,66,55,48,52,49,46,95,81,54,30.13,30.04,6,2,11,0.00
2013-3-16,67,56,48,53,49,44,98,79,44,30.13,30.03,7,2,11,0.00
2013-3-17,67,56,47,48,44,41,86,68,42,30.16,30.04,9,2,11,0.00
2013-3-18,62,53,47,51,47,43,92,80,61,30.13,30.04,10,2,18,0.00
2013-3-19,64,53,47,50,47,43,93,81,49,30.15,30.06,9,2,10,0.13
2013-3-20,59,53,49,54,50,47,97,92,73,30.14,30.07,11,2,15,0.05
2013-3-21,64,52,42,49,44,41,94,76,45,30.14,30.02,6,1,10,0.00
2013-3-22,69,55,44,43,38,30,85,56,25,30.12,30.03,7,2,11,0.00
2013-3-23,70,57,47,45,37,29,85,51,23,30.14,30.05,5,1,9,0.00
2013-3-24,65,53,47,50,47,44,92,80,51,30.09,29.98,10,3,13,0.00
2013-3-25,58,50,46,48,45,43,93,83,67,30.04,29.94,11,5,15,0.00
2013-3-26,61,53,45,51,46,43,92,79,65,30.01,29.94,11,3,13,0.00
2013-3-27,60,54,49,54,50,46,98,88,74,30.02,29.95,12,3,14,0.00
2013-3-28,67,58,53,56,53,50,98,86,64,30.09,30.01,5,1,9,0.00
2013-3-29,78,59,49,56,52,48,97,79,45,30.09,30.01,9,2,12,0.00
2013-3-30,66,56,51,55,52,50,98,88,62,30.08,29.99,10,3,13,0.05
2013-3-31,67,57,53,57,54,52,97,88,62,30.06,29.98,8,2,12,0.17
2013-4-1,64,57,51,56,53,49,98,87,69,30.15,30.05,7,1,11,0.49
2013-4-2,64,54,50,55,51,48,97,89,72,30.19,30.09,9,2,14,0.00
2013-4-3,74,56,50,57,51,49,97,86,53,30.14,30.00,14,3,17,0.00
2013-4-4,60,55,50,58,54,49,99,96,88,30.12,29.99,11,5,17,0.46
2013-4-5,64,56,53,56,54,51,99,91,72,30.19,30.12,9,2,13,0.00
2013-4-6,62,56,52,57,54,50,98,92,81,30.20,30.14,10,3,13,0.00
2013-4-7,62,55,51,56,51,47,97,88,69,30.17,29.85,17,4,19,0.02
2013-4-8,70,55,47,46,40,28,85,61,21,30.02,29.80,14,4,19,0.00
2013-4-9,78,62,49,46,40,29,78,49,17,30.09,30.02,12,3,18,0.00
2013-4-10,80,66,56,56,50,44,86,56,35,30.17,30.04,6,2,11,0.00
2013-4-11,71,59,49,52,49,46,89,71,45,30.05,29.84,7,2,10,0.00
2013-4-12,66,56,49,52,49,46,93,79,59,29.92,29.84,14,4,15,0.00
2013-4-13,69,56,48,52,46,41,91,70,43,29.91,29.82,9,3,13,0.00
2013-4-14,68,55,46,48,42,34,90,62,38,29.94,29.85,8,2,15,0.00
2013-4-15,60,51,44,48,40,35,93,70,44,29.96,29.86,11,2,19,0.00
2013-4-16,69,55,44,43,36,29,73,52,24,30.16,29.96,8,2,11,0.00
2013-4-17,72,60,52,42,34,24,63,40,17,30.27,30.16,9,2,13,0.00
2013-4-18,74,60,51,50,43,31,89,55,29,30.26,30.19,7,2,9,0.00
2013-4-19,70,59,49,54,50,47,94,73,45,30.23,30.07,7,2,12,0.00
2013-4-20,78,62,52,51,48,44,88,62,30,30.11,29.99,7,2,11,0.00
2013-4-21,80,63,50,56,50,46,93,67,35,30.04,29.93,6,2,9,0.00
2013-4-22,86,67,54,53,48,41,87,55,22,29.97,29.86,7,2,11,0.00
2013-4-23,80,63,49,50,39,23,93,50,16,29.93,29.86,10,3,14,0.00
2013-4-24,60,53,48,51,49,46,95,85,69,29.95,29.84,13,4,16,0.00
2013-4-25,62,55,50,51,50,47,91,82,67,30.14,29.95,11,4,14,0.00
2013-4-26,63,54,49,53,49,47,93,84,69,30.24,30.13,11,4,17,0.00
2013-4-27,63,53,48,53,49,47,95,87,68,30.23,30.09,13,4,17,0.00
2013-4-28,73,59,49,55,52,48,94,78,53,30.09,29.89,8,3,13,0.00
2013-4-29,77,65,54,59,53,50,90,68,46,29.91,29.77,8,2,12,0.00
2013-4-30,72,62,52,54,49,29,92,66,22,29.85,29.79,6,2,12,0.00
2013-5-1,83,68,56,52,37,20,79,38,12,30.08,29.84,9,2,12,0.00
2013-5-2,93,70,55,51,40,25,77,38,10,30.15,30.08,5,1,12,0.00
2013-5-3,82,66,55,53,49,39,83,59,25,30.07,29.80,7,2,10,0.00
2013-5-4,71,59,53,55,51,47,91,76,43,29.80,29.60,10,3,16,0.00
2013-5-5,66,59,54,52,50,47,85,71,56,29.81,29.61,7,1,16,0.00
2013-5-6,69,61,56,53,51,49,84,71,52,29.97,29.82,6,1,8,0.00
2013-5-7,69,60,54,57,54,52,96,80,57,30.05,29.96,6,2,12,0.00
2013-5-8,62,56,52,54,52,49,96,86,72,30.14,30.04,11,4,14,0.00
2013-5-9,65,56,52,54,51,49,92,82,66,30.18,30.09,11,5,17,0.00
2013-5-10,62,55,51,54,52,49,95,88,76,30.19,30.12,13,6,20,0.00
2013-5-11,70,57,51,59,53,50,97,87,64,30.16,30.07,12,4,14,0.00
2013-5-12,69,59,52,58,54,51,96,85,66,30.15,30.04,9,4,15,0.00
2013-5-13,67,59,52,58,54,50,95,83,70,30.10,29.95,10,5,13,0.00
2013-5-14,67,59,52,54,51,47,92,77,61,30.00,29.93,14,7,21,0.00
2013-5-15,68,58,50,53,50,47,90,75,52,30.05,29.98,15,5,19,0.00
2013-5-16,68,59,54,58,53,48,95,82,63,30.04,29.96,12,4,16,0.00
2013-5-17,68,58,50,54,49,44,87,72,51,30.07,29.98,11,3,14,0.00
2013-5-18,73,60,50,54,51,48,92,73,48,30.14,30.07,8,3,12,0.00
2013-5-19,77,64,53,55,51,47,90,67,37,30.12,29.98,9,1,10,0.00
2013-5-20,81,63,53,58,53,48,90,71,40,30.00,29.93,14,3,17,0.00
2013-5-21,72,59,52,51,47,40,91,66,38,29.99,29.91,10,4,14,0.00
2013-5-22,68,56,47,44,37,26,75,51,23,30.03,29.91,14,3,19,0.00
2013-5-23,68,56,46,49,43,41,85,63,42,30.00,29.92,10,2,12,0.00
2013-5-24,68,57,49,51,47,42,91,71,44,30.01,29.94,11,3,15,0.00
2013-5-25,65,56,49,51,48,46,91,75,56,30.05,29.96,15,5,16,0.00
2013-5-26,65,58,53,56,52,48,95,81,67,30.13,30.04,9,3,13,0.00
2013-5-27,64,57,52,57,53,47,95,85,69,30.12,30.00,5,1,9,0.04
2013-5-28,68,60,54,59,54,49,97,84,67,30.00,29.92,6,2,9,0.04
2013-5-29,73,61,54,56,52,47,90,75,49,29.98,29.90,7,2,11,0.00
2013-5-30,70,61,52,52,49,46,90,68,45,29.99,29.93,6,1,12,0.00
2013-5-31,72,61,52,54,51,47,85,70,49,30.02,29.91,11,2,14,0.00
2013-6-1,73,63,54,56,52,50,86,69,49,29.94,29.78,9,2,9,0.00
2013-6-2,67,58,52,55,52,50,94,81,62,29.79,29.69,11,5,16,0.00
2013-6-3,63,57,52,54,52,51,95,84,69,29.87,29.73,12,5,16,0.00
2013-6-4,63,56,54,54,52,51,93,86,72,29.98,29.86,13,6,18,0.00
2013-6-5,62,56,52,54,52,50,95,87,75,30.01,29.94,13,6,19,0.00
2013-6-6,63,55,51,55,52,50,97,89,72,29.96,29.88,13,6,18,0.00
2013-6-7,73,60,52,59,54,51,97,84,61,29.90,29.73,10,4,15,0.00
2013-6-8,67,60,54,57,55,52,97,85,67,29.82,29.74,13,6,18,0.00
2013-6-9,62,58,56,56,55,54,95,90,79,29.90,29.82,14,7,21,0.00
2013-6-10,67,59,55,56,54,51,97,84,67,29.96,29.84,14,5,21,0.00
2013-6-11,69,60,55,57,54,52,90,80,64,29.99,29.89,9,3,15,0.00
2013-6-12,73,62,52,55,52,48,93,73,44,29.99,29.91,9,3,13,0.00
2013-6-13,75,62,51,55,51,48,90,69,40,30.09,29.99,9,2,12,0.00
2013-6-14,76,62,53,58,53,50,92,74,46,30.00,29.85,9,3,15,0.00
2013-6-15,60,55,52,53,51,50,94,88,76,30.01,29.84,16,6,24,0.00
2013-6-16,72,60,52,58,53,50,94,80,56,30.09,30.00,13,5,14,0.00
2013-6-17,77,62,53,58,54,51,96,78,48,30.09,30.02,9,4,12,0.00
2013-6-18,72,62,53,54,51,46,95,71,43,30.03,29.98,12,3,15,0.00
2013-6-19,76,62,52,52,49,47,86,65,38,30.06,30.00,8,2,11,0.00
2013-6-20,77,63,54,54,50,44,86,64,31,30.01,29.94,9,2,13,0.00
2013-6-21,71,61,53,56,53,50,92,76,55,29.98,29.91,8,4,16,0.00
2013-6-22,74,63,55,57,54,51,89,74,50,29.94,29.85,9,4,15,0.00
2013-6-23,60,58,55,60,56,53,98,95,89,29.89,29.83,10,4,14,0.00
2013-6-24,59,57,55,58,56,54,99,96,91,29.91,29.80,6,2,10,0.13
2013-6-25,68,62,58,65,61,58,99,96,87,29.99,29.88,9,2,14,0.31
2013-6-26,74,66,60,64,62,59,98,86,70,30.06,29.98,7,2,9,0.01
2013-6-27,76,66,58,64,60,57,97,81,61,30.08,30.01,7,2,8,0.00
2013-6-28,75,65,58,63,58,56,93,80,64,30.03,29.90,13,4,16,0.00
2013-6-29,76,66,59,60,58,56,89,75,55,29.92,29.81,19,4,19,0.00
2013-6-30,70,64,59,59,57,55,88,80,69,29.84,29.77,9,4,13,0.00
2013-7-1,76,63,58,62,57,55,92,81,60,29.86,29.80,7,3,13,0.00
2013-7-2,69,60,57,60,56,55,95,88,72,29.93,29.83,14,5,21,0.00
2013-7-3,78,66,57,63,59,56,98,81,57,29.92,29.78,14,4,17,0.00
2013-7-4,72,66,60,61,58,53,95,78,64,29.79,29.69,12,4,15,0.00
2013-7-5,64,58,55,55,53,51,88,82,71,29.78,29.71,16,6,22,0.00
2013-7-6,63,56,54,55,52,52,92,87,74,29.82,29.76,13,5,15,0.00
2013-7-7,65,58,55,56,54,52,91,84,71,29.87,29.80,9,3,15,0.00
2013-7-8,65,58,54,56,54,52,94,86,72,29.98,29.87,9,3,13,0.00
2013-7-9,70,60,53,59,55,52,97,86,68,30.04,29.94,12,4,15,0.00
2013-7-10,65,57,53,56,54,52,96,89,71,29.99,29.92,13,5,18,0.00
2013-7-11,60,55,52,54,52,50,94,90,79,29.96,29.90,11,4,18,0.00
2013-7-12,61,56,53,55,53,51,93,88,78,29.96,29.89,10,4,15,0.00
2013-7-13,64,58,54,56,54,52,92,85,71,29.98,29.91,11,4,15,0.00
2013-7-14,61,56,53,55,53,52,94,89,79,30.01,29.91,15,6,21,0.00
2013-7-15,62,55,51,55,52,50,95,90,79,29.94,29.85,8,4,17,0.00
2013-7-16,65,58,55,57,54,51,93,85,76,30.03,29.87,9,3,14,0.00
2013-7-17,66,59,55,58,55,53,93,85,74,30.10,30.03,11,3,16,0.00
2013-7-18,64,57,54,56,54,52,94,89,77,30.07,29.96,15,5,18,0.00
2013-7-19,64,58,54,57,54,52,93,87,75,29.96,29.85,12,5,18,0.00
2013-7-20,63,56,53,56,53,51,95,89,76,29.86,29.77,11,4,16,0.00
2013-7-21,61,56,53,55,53,51,95,91,79,29.89,29.78,9,4,15,0.00
2013-7-22,64,58,54,58,56,53,96,91,79,29.97,29.89,10,3,13,0.00
2013-7-23,68,60,56,61,57,55,95,88,74,30.02,29.95,8,3,11,0.00
2013-7-24,67,60,55,58,56,54,97,88,71,30.00,29.91,11,5,17,0.00
2013-7-25,62,56,53,56,54,52,96,91,79,30.03,29.93,14,5,17,0.00
2013-7-26,64,57,53,57,54,52,96,91,78,30.11,30.02,16,5,18,0.00
2013-7-27,61,56,54,56,54,53,97,93,84,30.04,29.89,14,4,16,0.00
2013-7-28,61,56,54,55,54,52,97,92,81,29.89,29.83,11,3,18,0.00
2013-7-29,64,58,55,56,54,52,92,86,75,30.02,29.86,7,3,14,0.00
2013-7-30,64,58,53,56,54,52,94,87,76,30.11,30.02,13,3,18,0.00
2013-7-31,62,58,53,56,54,51,95,87,78,30.10,30.01,14,5,22,0.00
2013-8-1,64,59,55,56,54,52,91,84,75,30.07,29.97,12,6,19,0.00
2013-8-2,64,58,54,56,54,52,93,85,74,29.99,29.91,10,4,16,0.00
2013-8-3,62,56,52,56,53,51,96,89,77,29.98,29.93,13,5,19,0.00
2013-8-4,61,56,53,55,53,52,96,90,80,30.02,29.97,11,4,18,0.00
2013-8-5,61,56,54,55,53,52,94,90,80,30.04,29.96,13,4,17,0.00
2013-8-6,64,58,54,56,54,52,94,87,76,30.05,29.98,10,3,15,0.00
2013-8-7,65,60,56,58,56,54,94,87,75,30.11,30.04,7,2,9,0.00
2013-8-8,67,61,56,58,56,53,94,85,68,30.04,29.94,11,2,15,0.00
2013-8-9,65,59,54,58,55,52,93,87,77,30.00,29.92,10,4,15,0.00
2013-8-10,66,60,57,58,56,54,94,87,75,30.06,29.99,11,4,17,0.00
2013-8-11,62,57,55,57,55,54,97,92,81,30.03,29.95,13,5,16,0.00
2013-8-12,65,58,55,58,55,54,95,90,76,30.01,29.95,12,4,15,0.00
2013-8-13,74,63,57,60,56,54,92,81,61,29.99,29.92,8,4,16,0.00
2013-8-14,68,62,56,60,57,53,93,85,71,29.98,29.91,11,5,17,0.00
2013-8-15,72,65,60,64,61,59,96,88,74,29.96,29.91,10,5,16,0.00
2013-8-16,68,63,59,62,60,57,97,89,76,29.99,29.94,10,4,15,0.00
2013-8-17,73,63,58,62,58,55,91,84,67,29.99,29.86,9,4,18,0.00
2013-8-18,73,64,58,62,59,56,94,84,67,29.89,29.78,10,3,13,0.00
2013-8-19,68,62,58,59,58,56,95,87,73,29.90,29.80,11,6,19,0.00
2013-8-20,66,61,57,59,57,55,96,89,75,29.91,29.84,11,4,18,0.00
2013-8-21,67,61,58,58,56,55,91,84,70,29.95,29.87,10,2,14,0.00
2013-8-22,68,61,57,58,55,54,90,81,67,29.98,29.89,9,3,14,0.00
2013-8-23,64,60,56,57,55,53,91,86,77,29.93,29.81,11,4,16,0.00
2013-8-24,67,61,57,60,57,54,93,86,76,29.90,29.83,14,5,15,0.00
2013-8-25,72,65,60,64,60,58,95,86,74,29.94,29.89,6,2,13,0.00
2013-8-26,69,63,60,60,58,57,93,83,71,30.01,29.90,9,2,12,0.00
2013-8-27,69,62,57,61,58,54,94,86,74,29.90,29.82,11,3,17,0.00
2013-8-28,70,63,59,63,60,57,96,89,78,29.94,29.85,11,4,13,0.00
2013-8-29,72,65,60,63,61,59,96,87,74,30.06,29.94,9,3,14,0.00
2013-8-30,76,68,62,65,62,59,94,82,65,30.04,29.91,7,2,14,0.00
2013-8-31,68,62,57,61,58,56,95,87,78,29.98,29.89,11,4,16,0.00
2013-9-1,68,63,58,62,59,56,93,87,77,29.95,29.88,10,4,13,0.00
2013-9-2,72,65,61,64,62,60,96,88,76,29.96,29.88,10,3,14,0.00
2013-9-3,74,65,59,62,60,57,94,84,65,30.00,29.93,7,2,11,0.00
2013-9-4,80,66,59,62,59,56,93,78,46,30.03,29.93,8,2,12,0.00
2013-9-5,83,67,59,61,57,54,92,73,39,30.00,29.94,9,2,11,0.00
2013-9-6,86,71,58,62,56,48,91,63,36,29.98,29.82,4,1,7,0.00
2013-9-7,86,70,57,59,55,50,94,62,37,29.87,29.80,10,2,13,0.00
2013-9-8,70,61,56,61,57,55,96,87,70,29.88,29.76,10,4,14,0.00
2013-9-9,69,60,55,61,57,54,96,89,71,29.82,29.71,11,4,17,0.00
2013-9-10,68,62,58,61,59,57,97,89,77,29.90,29.74,9,4,15,0.00
2013-9-11,71,64,62,60,59,58,90,83,68,30.00,29.89,5,2,10,0.00
2013-9-12,69,63,59,61,59,57,96,88,73,29.98,29.88,10,3,15,0.00
2013-9-13,67,60,57,59,57,55,95,87,74,29.90,29.76,11,5,16,0.00
2013-9-14,69,60,56,60,56,54,94,87,72,29.82,29.74,14,6,17,0.00
2013-9-15,70,62,56,60,57,53,92,83,69,29.86,29.77,13,4,17,0.00
2013-9-16,72,64,58,61,58,56,95,84,64,29.90,29.78,10,3,14,0.00
2013-9-17,77,65,57,58,55,52,92,72,46,29.88,29.81,8,2,11,0.00
2013-9-18,80,65,56,56,53,49,86,67,35,29.91,29.81,5,1,10,0.00
2013-9-19,78,64,56,60,55,53,92,74,48,29.86,29.75,7,2,11,0.00
2013-9-20,69,61,54,62,57,51,93,87,79,29.86,29.77,8,3,13,0.00
2013-9-21,66,62,56,61,58,53,96,87,69,29.89,29.80,9,2,15,0.84
2013-9-22,71,61,53,58,54,51,96,80,56,30.00,29.89,5,1,10,0.01
2013-9-23,79,65,55,62,56,51,91,76,48,30.02,29.93,6,1,11,0.00
2013-9-24,76,64,58,59,55,49,95,74,46,29.99,29.90,8,2,14,0.00
2013-9-25,72,62,55,50,48,46,79,63,41,29.93,29.82,9,2,13,0.00
2013-9-26,77,62,52,52,45,40,73,57,27,29.98,29.83,7,1,10,0.00
2013-9-27,78,65,57,51,44,38,77,49,27,30.09,29.99,10,1,11,0.00
2013-9-28,76,64,54,56,48,41,87,60,29,30.08,30.00,6,1,10,0.00
2013-9-29,71,63,57,61,58,54,94,85,70,30.10,30.05,7,2,10,0.00
2013-9-30,70,63,55,63,60,46,97,90,72,30.07,29.97,7,2,9,0.00
2013-10-1,70,61,52,54,50,46,89,70,51,30.01,29.91,4,1,8,0.00
2013-10-2,71,62,54,57,50,42,91,69,44,30.01,29.93,7,1,9,0.00
2013-10-3,77,65,52,45,38,30,66,42,18,30.07,29.94,9,1,13,0.00
2013-10-4,83,70,62,34,31,26,33,24,13,30.08,29.96,7,1,17,0.00
2013-10-5,89,73,62,36,30,24,32,21,12,30.18,30.08,7,1,11,0.00
2013-10-6,89,70,56,47,37,29,50,32,15,30.11,29.98,5,1,8,0.00
2013-10-7,76,64,56,52,43,33,81,49,29,29.98,29.87,8,2,12,0.00
2013-10-8,68,58,51,54,50,45,93,74,46,29.90,29.70,6,2,13,0.00
2013-10-9,66,58,49,50,48,46,91,71,48,29.76,29.63,5,1,11,0.00
2013-10-10,63,56,52,53,50,47,91,81,66,30.01,29.75,5,2,11,0.00
2013-10-11,62,54,51,52,50,48,92,85,68,30.09,29.98,8,2,13,0.00
2013-10-12,59,54,50,52,50,47,95,86,75,30.01,29.91,10,3,14,0.00
2013-10-13,71,58,50,55,50,46,92,75,42,30.06,29.93,5,1,8,0.00
2013-10-14,81,63,50,53,45,37,91,56,22,30.11,29.99,2,0,8,0.00
2013-10-15,84,67,52,46,37,32,65,36,15,30.03,29.94,4,0,8,0.00
2013-10-16,86,68,54,50,39,33,65,37,18,30.08,29.98,4,0,6,0.00
2013-10-17,82,65,54,52,41,31,90,44,21,30.07,29.96,4,1,9,0.00
2013-10-18,70,58,50,56,52,49,98,83,56,30.05,29.98,5,2,10,0.00
2013-10-19,78,59,48,56,52,47,97,79,41,30.08,29.99,5,1,9,0.01
2013-10-20,63,54,48,56,51,47,97,88,72,30.02,29.91,9,3,14,0.00
2013-10-21,60,53,50,53,50,48,95,89,75,30.01,29.92,7,3,10,0.00
2013-10-22,64,53,49,55,50,48,97,91,70,30.03,29.93,11,3,12,0.00
2013-10-23,61,52,49,55,50,48,98,93,76,29.98,29.91,10,3,15,0.00
2013-10-24,59,53,49,51,49,47,94,88,74,30.11,29.97,7,2,10,0.00
2013-10-25,68,56,48,54,50,46,94,81,60,30.17,30.08,3,1,8,0.00
2013-10-26,74,58,50,57,52,48,96,82,53,30.14,30.01,5,2,10,0.01
2013-10-27,60,53,50,51,49,46,95,87,69,30.03,29.68,11,4,15,0.00
2013-10-28,61,54,47,50,48,43,93,81,63,29.84,29.67,10,2,17,0.00
2013-10-29,62,55,48,52,48,45,90,78,61,30.05,29.84,7,1,8,0.00
2013-10-30,70,55,48,54,48,39,95,78,47,30.15,30.05,5,0,6,0.00
2013-10-31,73,57,48,52,47,38,92,69,44,30.18,30.07,4,1,7,0.00
2013-11-1,78,63,52,50,46,44,81,58,34,30.14,30.00,5,1,8,0.00
2013-11-2,64,56,51,54,50,45,95,80,66,30.02,29.90,7,2,9,0.00
2013-11-3,66,55,48,46,40,34,82,60,30,30.05,29.92,5,1,7,0.00
2013-11-4,72,57,45,40,37,27,77,51,20,30.07,29.92,5,1,8,0.00
2013-11-5,72,60,50,45,38,34,59,46,30,30.21,30.06,3,0,7,0.00
2013-11-6,75,63,51,41,39,35,66,42,28,30.25,30.15,4,1,7,0.00
2013-11-7,72,60,52,50,45,38,84,58,37,30.16,30.07,6,1,9,0.00
2013-11-8,69,57,48,56,50,45,96,79,56,30.08,29.95,4,1,9,0.00
2013-11-9,71,56,46,52,49,44,95,80,49,30.05,29.97,6,1,9,0.00
2013-11-10,63,55,50,53,50,47,94,84,65,30.12,30.02,6,1,7,0.01
2013-11-11,66,56,48,55,50,46,95,82,65,30.17,30.08,6,0,9,0.00
2013-11-12,70,60,55,53,50,47,83,69,45,30.27,30.15,4,0,7,0.00
2013-11-13,74,57,51,56,52,49,96,85,54,30.24,30.10,7,2,12,0.00
2013-11-14,60,54,51,54,51,43,96,89,75,30.11,29.88,7,2,11,0.00
2013-11-15,66,54,45,47,44,41,87,71,47,29.88,29.73,6,1,12,0.00
2013-11-16,62,54,48,51,47,44,90,79,53,29.92,29.77,6,2,10,0.00
2013-11-17,61,53,50,50,48,47,93,84,66,30.09,29.93,7,2,9,0.00
2013-11-18,58,53,47,50,48,45,93,84,70,30.16,30.08,4,1,6,0.00
2013-11-19,58,55,53,55,52,48,96,89,77,30.11,29.93,10,3,13,0.58
2013-11-20,58,55,51,57,54,50,98,97,96,29.94,29.83,7,2,11,0.64
2013-11-21,63,56,49,52,38,24,97,60,28,29.98,29.89,9,2,15,0.03
2013-11-22,74,62,51,24,18,11,29,19,10,30.01,29.89,5,2,17,0.00
2013-11-23,68,57,51,50,33,23,92,44,20,30.09,29.95,11,2,17,0.00
2013-11-24,64,54,46,50,46,41,97,76,49,30.25,30.10,5,0,5,0.00
2013-11-25,66,55,46,47,44,41,86,67,49,30.32,30.24,4,1,10,0.00
2013-11-26,64,56,51,45,42,37,75,61,45,30.26,30.03,8,1,10,0.00
2013-11-27,65,57,51,47,45,42,78,65,53,30.03,29.84,9,2,13,0.00
2013-11-28,72,60,54,49,43,40,68,54,35,30.07,29.86,5,1,8,0.00
2013-11-29,69,58,50,50,46,42,84,66,47,30.21,30.07,4,0,5,0.00
2013-11-30,67,54,47,52,49,46,96,83,55,30.27,30.19,3,0,5,0.00
2013-12-1,71,58,49,52,47,45,89,70,40,30.34,30.21,3,0,6,0.00
2013-12-2,63,54,48,55,50,46,98,89,68,30.22,29.96,7,1,11,0.00
2013-12-3,57,50,43,54,38,30,95,64,44,29.95,29.85,6,2,12,0.00
2013-12-4,53,44,38,34,24,14,76,47,28,30.08,29.95,8,2,10,0.00
2013-12-5,52,43,36,32,21,12,75,44,29,30.17,30.08,4,0,7,0.00
2013-12-6,51,45,36,49,36,29,96,74,44,30.20,29.91,16,3,22,0.29
2013-12-7,49,42,36,46,32,27,94,70,45,30.26,29.92,11,2,15,0.00
2013-12-8,48,39,32,31,24,18,82,59,37,30.32,30.24,5,1,10,0.00
2013-12-9,52,41,33,28,19,15,66,43,24,30.41,30.31,5,1,14,0.00
2013-12-10,56,45,37,29,26,21,69,50,34,30.40,30.21,6,1,13,0.00
2013-12-11,57,48,40,32,28,24,69,47,34,30.24,30.17,11,2,13,0.00
2013-12-12,62,50,41,41,36,31,81,59,34,30.26,30.16,6,1,10,0.00
2013-12-13,61,49,42,46,42,38,96,78,45,30.34,30.23,2,0,4,0.00
2013-12-14,63,53,43,45,36,28,95,57,37,30.39,30.30,5,1,11,0.00
2013-12-15,65,55,46,41,36,30,75,50,36,30.36,30.23,7,1,12,0.00
2013-12-16,70,60,55,41,33,29,47,37,27,30.24,30.10,9,2,13,0.00
2013-12-17,69,58,50,45,39,32,66,51,34,30.17,30.02,8,1,13,0.00
2013-12-18,58,52,46,49,43,32,94,74,39,30.03,29.77,10,2,14,0.00
2013-12-19,62,52,45,45,32,15,88,53,24,29.93,29.73,10,2,17,0.00
2013-12-20,59,51,43,39,27,14,62,41,25,30.02,29.93,4,1,6,0.00
2013-12-21,67,53,46,49,45,30,91,75,48,30.09,29.97,4,0,6,0.00
2013-12-22,68,55,44,46,40,38,93,61,35,30.28,30.08,5,1,8,0.00
2013-12-23,68,56,46,44,40,37,75,57,38,30.39,30.27,3,0,8,0.00
2013-12-24,70,56,47,46,42,38,78,60,41,30.33,30.19,3,0,5,0.00
2013-12-25,68,58,50,43,38,32,67,48,36,30.28,30.18,5,1,9,0.00
2013-12-26,70,56,44,45,37,31,85,53,29,30.25,30.15,4,1,9,0.00
2013-12-27,63,52,45,44,38,34,73,60,47,30.23,30.12,2,0,5,0.00
2013-12-28,68,52,42,47,37,30,74,57,26,30.15,30.03,3,0,5,0.00
2013-12-29,68,57,48,35,26,21,59,33,20,30.17,30.08,6,1,10,0.00
2013-12-30,66,53,44,47,39,31,89,61,42,30.25,30.16,5,1,7,0.00
2013-12-31,64,50,42,45,40,33,91,70,32,30.27,30.15,3,0,5,0.00
2014-1-1,67,52,42,46,40,35,85,65,47,30.22,30.12,2,0,3,0.00
2014-1-2,70,57,46,40,36,33,66,47,28,30.17,30.04,4,0,8,0.00